createdAt,value
2022-10-21T00:03:10.713Z,12.97
2022-10-21T00:13:12.530Z,13.67
2022-10-21T00:23:14.129Z,13.43
2022-10-21T00:33:15.731Z,13.90
2022-10-21T00:43:17.417Z,13.63
2022-10-21T00:53:19.501Z,13.67
2022-10-21T01:03:22.646Z,14.50
2022-10-21T01:13:50.838Z,13.60
2022-10-21T01:23:55.462Z,14.03
2022-10-21T01:34:28.482Z,14.43
2022-10-21T01:44:46.078Z,14.00
2022-10-21T01:54:57.944Z,13.47
2022-10-21T02:05:04.272Z,13.47
2022-10-21T02:15:08.914Z,13.17
2022-10-21T02:25:19.992Z,13.20
2022-10-21T02:35:46.118Z,12.17
2022-10-21T02:45:48.944Z,12.40
2022-10-21T02:55:50.561Z,12.00
2022-10-21T03:05:52.419Z,12.57
2022-10-21T03:15:54.041Z,13.53
2022-10-21T03:25:55.722Z,12.43
2022-10-21T03:35:57.951Z,12.60
2022-10-21T03:45:59.571Z,11.47
2022-10-21T03:56:01.177Z,11.57
2022-10-21T04:06:02.943Z,12.00
2022-10-21T04:16:07.150Z,12.93
2022-10-21T04:26:09.304Z,12.30
2022-10-21T04:36:10.910Z,12.23
2022-10-21T04:46:17.055Z,12.67
2022-10-21T04:56:18.728Z,11.50
2022-10-21T05:06:20.427Z,12.10
2022-10-21T05:16:23.899Z,12.10
2022-10-21T05:26:25.563Z,12.97
2022-10-21T05:36:27.207Z,12.10
2022-10-21T05:46:29.225Z,13.20
2022-10-21T05:56:31.756Z,13.60
2022-10-21T06:06:33.558Z,12.63
2022-10-21T06:16:35.375Z,12.57
2022-10-21T06:26:37.186Z,13.30
2022-10-21T06:36:38.786Z,12.60
2022-10-21T06:46:40.385Z,12.20
2022-10-21T06:56:41.998Z,11.73
2022-10-21T07:06:45.210Z,11.27
2022-10-21T07:16:47.627Z,12.40
2022-10-21T07:26:50.119Z,15.67
2022-10-21T07:36:54.787Z,15.97
2022-10-21T07:46:56.808Z,15.27
2022-10-21T07:56:58.620Z,14.67
2022-10-21T08:07:00.291Z,13.63
2022-10-21T08:17:01.938Z,13.90
2022-10-21T08:27:05.552Z,13.60
2022-10-21T08:37:07.145Z,14.10
2022-10-21T08:47:32.751Z,14.40
2022-10-21T08:57:35.554Z,14.87
2022-10-21T09:08:05.682Z,15.20
2022-10-21T09:18:26.550Z,14.70
2022-10-21T09:28:30.529Z,14.20
2022-10-21T09:38:44.573Z,14.90
2022-10-21T09:49:41.488Z,15.73
2022-10-21T09:59:16.265Z,17.57
2022-10-21T10:09:36.935Z,16.63
2022-10-21T10:19:38.529Z,21.47
2022-10-21T10:29:41.657Z,21.17
2022-10-21T10:39:47.509Z,22.03
2022-10-21T10:49:50.658Z,15.77
2022-10-21T11:00:15.608Z,15.63
2022-10-21T11:10:53.471Z,14.13
2022-10-21T11:21:33.095Z,12.50
2022-10-21T11:32:10.319Z,13.30
2022-10-21T11:42:31.635Z,11.83
2022-10-21T11:52:33.199Z,10.53
2022-10-21T12:03:01.851Z,6.90
2022-10-21T12:13:20.097Z,2.00
2022-10-21T12:23:26.967Z,1.50
2022-10-21T12:33:41.548Z,1.53
2022-10-21T12:44:01.112Z,1.90
2022-10-21T12:54:02.699Z,2.30
2022-10-21T13:04:05.208Z,11.50
2022-10-21T13:14:19.206Z,1.60
2022-10-21T13:24:23.932Z,1.90
2022-10-21T13:34:29.244Z,1.97
2022-10-21T13:44:38.207Z,2.50
2022-10-21T13:54:39.868Z,2.63
2022-10-21T14:04:42.781Z,2.17
2022-10-21T14:14:44.455Z,1.70
2022-10-21T14:24:48.646Z,1.60
2022-10-21T14:34:56.449Z,1.77
2022-10-21T14:45:03.670Z,1.90
2022-10-21T14:55:13.489Z,1.40
2022-10-21T15:05:29.170Z,2.10
2022-10-21T15:15:48.227Z,2.20
2022-10-21T15:26:00.508Z,2.80
2022-10-21T15:36:09.487Z,2.40
2022-10-21T15:46:11.944Z,3.30
2022-10-21T15:56:15.025Z,2.90
2022-10-21T16:06:19.480Z,2.93
2022-10-21T16:16:24.874Z,7.10
2022-10-21T16:26:28.813Z,3.00
2022-10-21T16:36:32.235Z,3.40
2022-10-21T16:46:40.659Z,3.77
2022-10-21T16:56:42.430Z,5.10
2022-10-21T17:06:47.064Z,6.20
2022-10-21T17:16:48.702Z,5.43
2022-10-21T17:26:50.339Z,5.63
2022-10-21T17:36:51.975Z,5.77
2022-10-21T17:46:54.606Z,6.70
2022-10-21T17:56:56.892Z,6.70
2022-10-21T18:06:58.552Z,7.40
2022-10-21T18:17:00.152Z,8.73
2022-10-21T18:27:01.899Z,8.23
2022-10-21T18:37:03.532Z,7.37
2022-10-21T18:47:05.130Z,7.73
2022-10-21T18:57:09.821Z,7.87
2022-10-21T19:07:11.443Z,8.90
2022-10-21T19:17:13.093Z,10.73
2022-10-21T19:27:14.733Z,9.87
2022-10-21T19:37:16.391Z,9.07
2022-10-21T19:47:17.996Z,8.87
2022-10-21T19:57:19.695Z,9.37
2022-10-21T20:07:21.385Z,9.43
2022-10-21T20:17:23.282Z,9.37
2022-10-21T20:27:25.127Z,10.30
2022-10-21T20:37:26.747Z,9.83
2022-10-21T20:47:30.847Z,9.87
2022-10-21T20:57:32.661Z,9.30
2022-10-21T21:07:34.243Z,10.50
2022-10-21T21:17:35.873Z,9.73
2022-10-21T21:27:37.655Z,10.60
2022-10-21T21:37:39.263Z,11.23
2022-10-21T21:47:40.857Z,10.20
2022-10-21T21:57:42.475Z,10.40
2022-10-21T22:07:44.164Z,10.30
2022-10-21T22:17:45.794Z,12.23
2022-10-21T22:27:47.417Z,15.47
2022-10-21T22:37:49.057Z,13.33
2022-10-21T22:47:50.651Z,8.33
2022-10-21T22:57:52.258Z,5.27
2022-10-21T23:07:53.939Z,5.97
2022-10-21T23:17:57.011Z,5.67
2022-10-21T23:27:58.641Z,6.47
2022-10-21T23:38:00.498Z,6.33
2022-10-21T23:48:02.151Z,8.47
2022-10-21T23:58:03.769Z,7.73
